Time;durP1;ratioP1;P1;durP2;ratioP2;P2;SDS_P1;SDS_P2;PMS_P1;PMS_P2;Temp;Humidity;BMP_temperature;BMP_pressure;BME280_temperature;BME280_humidity;BME280_pressure;Samples;Min_cycle;Max_cycle;Signal;HPM_P1;HPM_P2
2023/02/04 00:01:54;;;;;;;38.90;20.70;;;;;;;1.37;87.16;99353.42;130736;1258;108681;-75
2023/02/04 00:05:00;;;;;;;33.20;18.60;;;;;;;1.26;87.27;99358.48;130515;1258;107549;-73
2023/02/04 00:08:05;;;;;;;26.90;16.80;;;;;;;1.18;87.34;99372.34;130506;1257;107508;-74
2023/02/04 00:11:11;;;;;;;24.60;14.60;;;;;;;1.09;87.83;99380.94;130530;1254;107451;-74
2023/02/04 00:14:16;;;;;;;25.00;15.40;;;;;;;1.05;87.83;99393.67;130698;1258;105830;-73
2023/02/04 00:17:22;;;;;;;30.00;15.70;;;;;;;0.90;89.05;99409.11;130532;1254;107612;-75
2023/02/04 00:20:28;;;;;;;26.10;16.00;;;;;;;0.83;89.82;99420.50;130529;1256;105951;-75
2023/02/04 00:23:33;;;;;;;27.50;15.80;;;;;;;0.74;89.69;99435.48;130647;1256;107427;-75
2023/02/04 00:26:39;;;;;;;29.10;18.60;;;;;;;0.67;89.57;99446.65;130691;1256;107555;-74
2023/02/04 00:29:45;;;;;;;24.70;15.10;;;;;;;0.60;89.32;99460.27;130687;1255;106523;-74
2023/02/04 00:32:53;;;;;;;22.90;15.60;;;;;;;0.51;89.06;99466.70;130523;1258;107519;-74
2023/02/04 00:35:59;;;;;;;21.50;13.00;;;;;;;0.47;89.04;99475.08;130647;1254;107504;-74
2023/02/04 00:39:05;;;;;;;18.50;11.70;;;;;;;0.48;88.87;99484.27;130651;1257;108650;-74
2023/02/04 00:42:12;;;;;;;21.20;13.20;;;;;;;0.42;89.44;99495.71;130575;1256;107534;-74
2023/02/04 00:45:17;;;;;;;18.80;12.10;;;;;;;0.34;90.23;99507.25;130705;1257;107449;-75
2023/02/04 00:48:23;;;;;;;19.80;11.60;;;;;;;0.29;90.24;99518.27;130679;1254;107261;-74
2023/02/04 00:51:28;;;;;;;19.80;11.80;;;;;;;0.17;89.86;99531.84;130528;1259;107554;-72
2023/02/04 00:54:34;;;;;;;19.60;11.00;;;;;;;0.11;89.73;99538.02;130740;1254;107197;-73
2023/02/04 00:57:40;;;;;;;15.90;9.20;;;;;;;0.04;90.31;99558.13;130706;1257;107485;-73
2023/02/04 01:00:45;;;;;;;15.50;9.60;;;;;;;-0.06;90.69;99567.52;130701;1254;107535;-73
2023/02/04 01:03:51;;;;;;;13.20;8.90;;;;;;;-0.06;90.91;99579.23;130557;1254;107322;-73
2023/02/04 01:06:57;;;;;;;14.20;9.00;;;;;;;-0.11;90.35;99588.66;130540;1258;107559;-74
2023/02/04 01:10:02;;;;;;;15.50;9.00;;;;;;;-0.28;90.50;99606.40;130581;1258;107456;-73
2023/02/04 01:13:08;;;;;;;16.70;8.20;;;;;;;-0.41;90.75;99615.88;130613;1257;107595;-72
2023/02/04 01:16:13;;;;;;;13.30;7.40;;;;;;;-0.42;91.25;99626.25;130748;1254;107496;-74
2023/02/04 01:19:20;;;;;;;10.70;6.80;;;;;;;-0.41;91.26;99636.73;130761;1257;107462;-75
2023/02/04 01:22:25;;;;;;;10.20;6.50;;;;;;;-0.45;91.35;99643.46;130624;1258;109316;-73
2023/02/04 01:25:31;;;;;;;11.30;6.20;;;;;;;-0.48;91.71;99656.74;130695;1257;107527;-74
2023/02/04 01:28:38;;;;;;;9.30;6.30;;;;;;;-0.53;91.93;99669.11;130526;1256;106513;-74
2023/02/04 01:31:43;;;;;;;9.80;6.40;;;;;;;-0.57;92.07;99677.24;130554;1257;106562;-74
2023/02/04 01:34:49;;;;;;;12.50;6.80;;;;;;;-0.58;92.15;99691.95;130585;1258;108388;-73
2023/02/04 01:37:56;;;;;;;11.30;6.50;;;;;;;-0.59;91.87;99701.61;130738;1258;107675;-74
2023/02/04 01:41:02;;;;;;;10.50;6.10;;;;;;;-0.60;91.91;99713.92;130575;1257;107547;-72
2023/02/04 01:44:08;;;;;;;7.90;6.10;;;;;;;-0.56;92.38;99727.47;130724;1256;107371;-73
2023/02/04 01:47:14;;;;;;;9.50;6.00;;;;;;;-0.57;92.05;99741.17;130749;1259;106847;-73
2023/02/04 01:50:20;;;;;;;10.70;6.60;;;;;;;-0.64;92.22;99760.98;130743;1259;107291;-73
2023/02/04 01:53:27;;;;;;;10.70;6.50;;;;;;;-0.71;93.02;99779.10;130597;1261;107428;-73
2023/02/04 01:56:33;;;;;;;10.70;6.50;;;;;;;-0.84;94.01;99789.60;130563;1257;107453;-73
2023/02/04 01:59:41;;;;;;;11.40;6.50;;;;;;;-0.90;94.19;99800.48;130567;1259;106329;-74
2023/02/04 02:02:49;;;;;;;11.30;6.20;;;;;;;-0.91;94.10;99813.23;130657;1257;107611;-74
2023/02/04 02:05:55;;;;;;;10.20;6.10;;;;;;;-0.90;94.53;99817.36;130727;1255;107732;-75
2023/02/04 02:09:05;;;;;;;10.50;7.00;;;;;;;-0.91;95.20;99830.69;130738;1257;107546;-74
2023/02/04 02:12:11;;;;;;;11.50;6.60;;;;;;;-0.90;95.08;99841.50;130802;1259;107547;-73
2023/02/04 02:15:18;;;;;;;9.20;6.50;;;;;;;-0.90;94.78;99860.17;130702;1257;107663;-74
2023/02/04 02:18:24;;;;;;;10.30;6.30;;;;;;;-0.88;94.64;99877.36;130747;1257;107477;-74
2023/02/04 02:21:36;;;;;;;11.00;6.90;;;;;;;-0.84;94.18;99904.34;130683;1257;107533;-73
2023/02/04 02:24:40;;;;;;;;;;;;;;;-0.85;93.53;99910.18;130511;1258;107476;-73
2023/02/04 02:27:47;;;;;;;11.70;7.00;;;;;;;-0.87;93.54;99933.16;130596;1254;107300;-74
2023/02/04 02:30:53;;;;;;;12.30;7.90;;;;;;;-0.94;93.41;99949.28;130610;1257;107501;-72
2023/02/04 02:33:58;;;;;;;12.50;8.00;;;;;;;-1.02;94.04;99955.30;130616;1258;107528;-74
2023/02/04 02:37:07;;;;;;;13.60;7.30;;;;;;;-1.00;94.61;99962.20;130611;1257;106747;-73
2023/02/04 02:40:14;;;;;;;12.50;7.80;;;;;;;-0.98;94.76;99971.33;130595;1259;107371;-74
2023/02/04 02:43:24;;;;;;;12.50;8.00;;;;;;;-0.96;94.28;99979.64;130536;1254;107504;-74
2023/02/04 02:46:29;;;;;;;12.00;8.10;;;;;;;-0.94;94.02;99997.48;130535;1257;106639;-73
2023/02/04 02:49:36;;;;;;;14.90;8.70;;;;;;;-0.91;93.86;100014.91;130512;1259;107561;-75
2023/02/04 02:52:42;;;;;;;12.10;7.80;;;;;;;-0.92;93.69;100035.60;130584;1254;107367;-74
2023/02/04 02:55:48;;;;;;;11.90;7.40;;;;;;;-0.93;94.03;100032.52;130719;1259;107512;-73
2023/02/04 02:58:57;;;;;;;12.40;8.30;;;;;;;-0.91;93.83;100047.73;130705;1257;107528;-74
2023/02/04 03:02:05;;;;;;;14.00;8.70;;;;;;;-0.86;93.62;100062.81;130537;1259;107515;-74
2023/02/04 03:05:13;;;;;;;14.40;8.00;;;;;;;-0.86;93.32;100087.46;130588;1259;107542;-74
2023/02/04 03:08:21;;;;;;;14.30;8.10;;;;;;;-0.87;93.25;100098.73;130628;1258;107516;-73
2023/02/04 03:11:28;;;;;;;13.80;8.60;;;;;;;-0.84;93.27;100118.08;130690;1259;107537;-74
2023/02/04 03:14:37;;;;;;;12.40;7.80;;;;;;;-0.82;92.80;100133.71;130709;1259;107460;-73
2023/02/04 03:17:43;;;;;;;12.10;7.80;;;;;;;-0.85;92.63;100144.50;130655;1256;107432;-74
2023/02/04 03:20:51;;;;;;;12.10;7.80;;;;;;;-0.84;92.45;100159.80;130727;1257;107515;-74
2023/02/04 03:23:57;;;;;;;12.70;7.60;;;;;;;-0.81;92.25;100175.73;130490;1256;107440;-76
2023/02/04 03:27:03;;;;;;;11.20;7.70;;;;;;;-0.81;91.84;100185.00;130614;1254;109267;-74
2023/02/04 03:30:10;;;;;;;14.40;7.50;;;;;;;-0.84;91.63;100196.70;130720;1258;107528;-74
2023/02/04 03:33:15;;;;;;;13.20;7.70;;;;;;;-0.92;91.39;100210.73;130722;1257;107218;-75
2023/02/04 03:36:21;;;;;;;10.70;6.60;;;;;;;-0.90;91.95;100219.35;130583;1257;107564;-74
2023/02/04 03:39:26;;;;;;;10.60;6.40;;;;;;;-0.85;91.62;100219.77;130749;1258;106134;-74
2023/02/04 03:42:32;;;;;;;11.60;7.00;;;;;;;-0.76;91.54;100241.87;130705;1257;107606;-73
2023/02/04 03:45:38;;;;;;;11.20;7.00;;;;;;;-0.78;91.04;100254.20;130638;1257;107352;-75
2023/02/04 03:48:43;;;;;;;12.30;7.20;;;;;;;-0.88;91.36;100265.32;130753;1258;107211;-74
2023/02/04 03:51:49;;;;;;;11.30;6.90;;;;;;;-0.97;91.28;100281.16;130753;1257;107402;-74
2023/02/04 03:54:54;;;;;;;10.30;6.10;;;;;;;-1.00;91.39;100285.88;130705;1257;107546;-74
2023/02/04 03:58:00;;;;;;;10.70;6.50;;;;;;;-0.95;91.32;100303.09;130549;1258;107612;-74
2023/02/04 04:01:06;;;;;;;10.90;6.70;;;;;;;-0.97;90.90;100311.71;130519;1256;107542;-74
2023/02/04 04:04:11;;;;;;;10.30;6.10;;;;;;;-0.99;90.70;100314.44;130641;1259;107539;-74
2023/02/04 04:07:17;;;;;;;10.30;6.60;;;;;;;-1.04;90.87;100331.14;130719;1256;107388;-73
2023/02/04 04:10:23;;;;;;;11.30;6.10;;;;;;;-1.09;90.70;100346.55;130670;1259;106340;-75
2023/02/04 04:13:28;;;;;;;10.80;6.30;;;;;;;-1.12;90.66;100356.67;130549;1258;107296;-74
2023/02/04 04:16:34;;;;;;;10.40;6.60;;;;;;;-1.12;90.82;100368.04;130529;1258;105914;-74
2023/02/04 04:19:39;;;;;;;9.80;5.90;;;;;;;-1.13;90.70;100387.63;130534;1256;107252;-75
2023/02/04 04:22:45;;;;;;;11.70;6.60;;;;;;;-1.12;90.96;100401.03;130569;1258;105710;-73
2023/02/04 04:25:51;;;;;;;12.70;7.60;;;;;;;-1.13;90.99;100418.02;130551;1258;107477;-74
2023/02/04 04:28:56;;;;;;;14.90;8.20;;;;;;;-1.18;91.12;100437.05;130589;1258;106463;-74
2023/02/04 04:32:04;;;;;;;14.20;7.80;;;;;;;-1.17;91.20;100449.60;130688;1269;107397;-73
2023/02/04 04:35:10;;;;;;;12.30;7.00;;;;;;;-1.20;90.90;100469.11;130716;1271;107486;-74
2023/02/04 04:38:15;;;;;;;11.50;7.00;;;;;;;-1.23;91.14;100484.09;130669;1256;107623;-73
2023/02/04 04:41:21;;;;;;;12.40;6.70;;;;;;;-1.23;91.05;100494.73;130648;1256;107538;-73
2023/02/04 04:44:26;;;;;;;9.90;6.50;;;;;;;-1.22;91.12;100503.59;130626;1259;107561;-73
2023/02/04 04:47:32;;;;;;;10.50;6.40;;;;;;;-1.21;91.04;100514.16;130784;1254;107507;-74
2023/02/04 04:50:37;;;;;;;10.90;6.30;;;;;;;-1.24;91.09;100532.30;130640;1259;107536;-76
2023/02/04 04:53:43;;;;;;;12.00;7.00;;;;;;;-1.32;91.07;100539.46;130626;1258;107516;-74
2023/02/04 04:56:48;;;;;;;10.60;6.60;;;;;;;-1.36;91.22;100543.84;130718;1259;107489;-74
2023/02/04 04:59:54;;;;;;;13.00;6.90;;;;;;;-1.37;90.84;100547.77;130605;1259;106542;-75
2023/02/04 05:03:00;;;;;;;10.50;6.30;;;;;;;-1.38;90.75;100558.60;130702;1259;107544;-73
2023/02/04 05:06:07;;;;;;;10.80;6.30;;;;;;;-1.33;90.67;100566.77;130707;1256;107342;-74
2023/02/04 05:09:14;;;;;;;9.10;6.00;;;;;;;-1.31;90.53;100579.94;130669;1259;107633;-74
2023/02/04 05:12:19;;;;;;;8.80;5.40;;;;;;;-1.33;90.33;100588.08;130661;1259;107489;-74
2023/02/04 05:15:25;;;;;;;8.90;5.20;;;;;;;-1.35;90.26;100600.71;130551;1269;107217;-75
2023/02/04 05:18:31;;;;;;;10.10;5.90;;;;;;;-1.39;89.92;100609.79;130542;1255;107211;-74
2023/02/04 05:21:36;;;;;;;10.60;5.70;;;;;;;-1.46;90.01;100621.59;130578;1256;107700;-74
2023/02/04 05:24:42;;;;;;;11.50;6.30;;;;;;;-1.47;90.34;100631.59;130545;1257;107533;-74
2023/02/04 05:27:47;;;;;;;9.30;5.60;;;;;;;-1.47;90.40;100644.67;130515;1258;106802;-74
2023/02/04 05:30:53;;;;;;;13.50;7.30;;;;;;;-1.51;90.37;100661.96;130520;1254;105918;-74
2023/02/04 05:33:58;;;;;;;12.40;6.70;;;;;;;-1.53;90.44;100674.60;130531;1259;107485;-74
2023/02/04 05:37:04;;;;;;;10.80;6.30;;;;;;;-1.51;90.75;100688.81;130507;1259;107405;-75
2023/02/04 05:40:11;;;;;;;12.40;7.40;;;;;;;-1.50;90.58;100702.73;130468;1256;107576;-75
2023/02/04 05:43:17;;;;;;;12.20;6.70;;;;;;;-1.51;90.39;100709.73;130615;1259;106906;-75
2023/02/04 05:46:22;;;;;;;10.70;7.20;;;;;;;-1.52;90.54;100718.34;130578;1259;107496;-75
2023/02/04 05:49:28;;;;;;;12.40;7.50;;;;;;;-1.53;90.64;100724.31;130585;1257;107483;-74
2023/02/04 05:52:33;;;;;;;12.10;6.90;;;;;;;-1.53;90.76;100730.27;130614;1267;107629;-72
2023/02/04 05:55:39;;;;;;;13.00;7.00;;;;;;;-1.50;90.53;100743.23;130611;1258;107432;-74
2023/02/04 05:58:44;;;;;;;11.40;6.90;;;;;;;-1.50;90.51;100754.55;130611;1256;107223;-74
2023/02/04 06:01:50;;;;;;;11.80;6.50;;;;;;;-1.51;90.55;100762.08;130967;1257;107203;-74
2023/02/04 06:04:55;;;;;;;11.40;6.80;;;;;;;-1.50;90.28;100780.02;130846;1256;107549;-74
2023/02/04 06:08:01;;;;;;;11.40;6.60;;;;;;;-1.54;90.15;100792.73;130742;1259;107507;-74
2023/02/04 06:11:06;;;;;;;9.20;5.80;;;;;;;-1.57;90.11;100809.65;130858;1269;108646;-75
2023/02/04 06:14:12;;;;;;;9.00;5.60;;;;;;;-1.57;89.98;100818.35;130813;1259;107520;-74
2023/02/04 06:17:18;;;;;;;10.90;6.10;;;;;;;-1.58;89.95;100833.36;130678;1258;107569;-74
2023/02/04 06:20:23;;;;;;;12.30;6.40;;;;;;;-1.58;89.84;100841.77;130776;1259;107750;-74
2023/02/04 06:23:29;;;;;;;13.70;7.60;;;;;;;-1.63;89.75;100849.46;130718;1259;109480;-74
2023/02/04 06:26:35;;;;;;;11.70;6.50;;;;;;;-1.66;89.75;100865.27;130775;1257;107564;-74
2023/02/04 06:29:40;;;;;;;11.80;6.20;;;;;;;-1.65;90.17;100876.58;130659;1256;108122;-74
2023/02/04 06:32:46;;;;;;;11.40;6.50;;;;;;;-1.67;89.14;100891.84;130597;1256;107264;-74
2023/02/04 06:35:52;;;;;;;14.20;6.70;;;;;;;-1.75;88.94;100902.61;130746;1259;107540;-74
2023/02/04 06:38:57;;;;;;;12.50;6.60;;;;;;;-1.81;89.00;100916.79;130636;1256;108757;-74
2023/02/04 06:42:03;;;;;;;14.60;7.30;;;;;;;-1.82;88.99;100920.65;130681;1259;107427;-75
2023/02/04 06:45:09;;;;;;;13.20;6.90;;;;;;;-1.93;88.83;100922.48;130622;1259;106700;-75
2023/02/04 06:48:15;;;;;;;14.10;7.00;;;;;;;-2.04;88.70;100932.42;130680;1256;107570;-72
2023/02/04 06:51:20;;;;;;;10.50;6.00;;;;;;;-2.07;88.48;100941.63;130763;1258;106739;-73
2023/02/04 06:54:26;;;;;;;10.50;6.40;;;;;;;-2.12;88.74;100947.38;130663;1258;105499;-79
2023/02/04 06:57:31;;;;;;;10.80;6.00;;;;;;;-2.15;88.75;100951.33;130464;1256;107571;-77
2023/02/04 07:00:37;;;;;;;10.50;6.10;;;;;;;-2.13;88.60;100954.93;130472;1256;107534;-77
2023/02/04 07:03:43;;;;;;;12.30;6.50;;;;;;;-2.22;88.00;100959.05;130521;1259;107527;-78
2023/02/04 07:06:48;;;;;;;12.20;6.20;;;;;;;-2.25;88.27;100968.42;130501;1259;107624;-77
2023/02/04 07:09:54;;;;;;;16.10;8.00;;;;;;;-2.31;88.06;100979.58;130483;1260;107596;-77
2023/02/04 07:12:59;;;;;;;13.00;6.20;;;;;;;-2.39;87.94;100983.88;130509;1258;107357;-76
2023/02/04 07:16:06;;;;;;;11.40;5.60;;;;;;;-2.42;87.78;100992.34;130533;1255;107441;-77
2023/02/04 07:19:11;;;;;;;12.00;6.40;;;;;;;-2.41;88.13;100998.05;130695;1259;107419;-76
2023/02/04 07:22:17;;;;;;;15.50;6.80;;;;;;;-2.35;87.99;101009.00;130672;1266;107245;-77
2023/02/04 07:25:22;;;;;;;13.40;7.20;;;;;;;-2.37;87.53;101009.93;130809;1256;107233;-77
2023/02/04 07:28:28;;;;;;;15.10;8.10;;;;;;;-2.35;88.04;101016.51;130659;1259;107367;-77
2023/02/04 07:31:33;;;;;;;12.30;7.20;;;;;;;-2.34;87.34;101028.83;130557;1259;107214;-76
2023/02/04 07:34:39;;;;;;;19.00;7.80;;;;;;;-2.36;87.53;101033.45;130558;1256;107303;-77
2023/02/04 07:37:45;;;;;;;14.40;6.70;;;;;;;-2.34;87.78;101033.20;130547;1259;107470;-77
2023/02/04 07:40:50;;;;;;;16.30;7.40;;;;;;;-2.29;87.57;101040.88;130674;1259;107596;-77
2023/02/04 07:43:56;;;;;;;13.40;6.60;;;;;;;-2.26;86.86;101044.96;130701;1259;107951;-77
2023/02/04 07:47:01;;;;;;;12.40;6.30;;;;;;;-2.24;86.77;101046.45;130624;1259;106596;-79
2023/02/04 07:50:08;;;;;;;14.40;6.50;;;;;;;-2.25;86.58;101048.03;130577;1259;106685;-77
2023/02/04 07:53:13;;;;;;;11.30;6.10;;;;;;;-2.26;86.59;101059.06;130496;1259;105757;-77
2023/02/04 07:56:19;;;;;;;13.40;7.50;;;;;;;-2.30;86.54;101057.10;130699;1256;107295;-77
2023/02/04 07:59:24;;;;;;;10.30;6.00;;;;;;;-2.29;86.87;101063.52;130654;1258;107640;-78
2023/02/04 08:02:30;;;;;;;11.90;6.30;;;;;;;-2.30;86.08;101077.33;130669;1257;108031;-78
2023/02/04 08:05:35;;;;;;;11.00;5.10;;;;;;;-2.36;85.83;101087.27;130754;1259;108639;-78
2023/02/04 08:08:41;;;;;;;12.00;5.60;;;;;;;-2.33;85.76;101098.48;130771;1257;107375;-75
2023/02/04 08:11:47;;;;;;;9.90;5.50;;;;;;;-2.26;85.76;101104.03;130648;1256;107465;-78
2023/02/04 08:14:53;;;;;;;11.70;5.90;;;;;;;-2.20;85.71;101110.45;130726;1256;107430;-78
2023/02/04 08:17:58;;;;;;;14.80;6.70;;;;;;;-2.18;85.73;101114.04;130854;1259;107389;-78
2023/02/04 08:21:05;;;;;;;13.70;6.90;;;;;;;-2.16;84.84;101115.39;130681;1259;107284;-77
2023/02/04 08:24:10;;;;;;;14.80;7.20;;;;;;;-2.19;84.70;101118.25;130783;1255;107582;-78
2023/02/04 08:27:16;;;;;;;16.50;7.10;;;;;;;-2.20;84.99;101121.95;130759;1254;107538;-77
2023/02/04 08:30:22;;;;;;;14.00;6.10;;;;;;;-2.22;84.51;101126.04;130691;1256;107514;-77
2023/02/04 08:33:27;;;;;;;14.90;6.40;;;;;;;-2.22;84.75;101133.52;130879;1260;107577;-77
2023/02/04 08:36:33;;;;;;;13.20;5.50;;;;;;;-2.16;84.54;101146.77;130985;1258;107526;-75
2023/02/04 08:39:43;;;;;;;15.30;6.60;;;;;;;-2.18;84.31;101154.98;130725;1259;107553;-79
2023/02/04 08:42:48;;;;;;;19.60;7.70;;;;;;;-2.20;84.04;101170.05;130926;1259;107403;-79
2023/02/04 08:45:54;;;;;;;13.20;5.80;;;;;;;-2.17;84.63;101167.52;131054;1259;107537;-80
2023/02/04 08:48:59;;;;;;;11.30;5.60;;;;;;;-2.14;84.28;101167.80;130827;1257;107722;-81
2023/02/04 08:52:06;;;;;;;11.20;5.10;;;;;;;-2.13;84.28;101172.11;130922;1259;107555;-76
2023/02/04 08:55:12;;;;;;;10.50;4.80;;;;;;;-2.13;84.00;101172.81;130414;1260;213578;-77
2023/02/04 08:58:18;;;;;;;11.40;5.50;;;;;;;-2.14;83.60;101177.91;130645;1254;108615;-78
2023/02/04 09:01:23;;;;;;;8.70;4.40;;;;;;;-2.11;83.49;101184.92;131079;1257;107341;-76
2023/02/04 09:04:29;;;;;;;10.40;5.40;;;;;;;-2.07;83.71;101197.02;130802;1257;107360;-76
2023/02/04 09:07:34;;;;;;;12.30;5.60;;;;;;;-1.98;84.28;101209.10;130966;1257;108094;-79
2023/02/04 09:10:40;;;;;;;13.10;5.80;;;;;;;-1.84;83.60;101215.44;130754;1258;106903;-82
2023/02/04 09:13:45;;;;;;;12.80;6.50;;;;;;;-1.75;83.18;101227.02;130882;1259;107492;-80
2023/02/04 09:16:51;;;;;;;10.80;5.50;;;;;;;-1.63;83.55;101233.63;130714;1260;106333;-76
2023/02/04 09:19:56;;;;;;;64.20;37.60;;;;;;;-1.52;83.17;101235.86;130593;1265;107596;-76
2023/02/04 09:23:02;;;;;;;13.50;6.00;;;;;;;-1.39;83.71;101238.38;130520;1258;107494;-81
2023/02/04 09:26:07;;;;;;;9.70;5.00;;;;;;;-1.30;82.38;101249.23;131005;1259;107477;-79
2023/02/04 09:29:13;;;;;;;14.30;6.70;;;;;;;-1.11;82.62;101262.73;130895;1259;105999;-80
2023/02/04 09:32:19;;;;;;;15.10;8.40;;;;;;;-0.87;83.10;101263.27;130699;1261;107509;-77
2023/02/04 09:35:24;;;;;;;15.10;6.80;;;;;;;-0.63;82.75;101268.02;130627;1259;107638;-75
2023/02/04 09:38:30;;;;;;;13.60;6.60;;;;;;;-0.55;81.77;101276.80;130726;1259;107375;-77
2023/02/04 09:41:37;;;;;;;12.10;5.90;;;;;;;-0.52;80.79;101280.02;130774;1258;107537;-78
2023/02/04 09:44:44;;;;;;;12.40;6.60;;;;;;;-0.51;81.39;101290.28;131070;1259;107394;-76
2023/02/04 09:47:51;;;;;;;9.80;5.50;;;;;;;-0.49;81.12;101299.11;130879;1258;107513;-77
2023/02/04 09:51:05;;;;;;;11.00;5.40;;;;;;;-0.49;80.78;101296.85;130869;1258;107329;-77
2023/02/04 09:54:15;;;;;;;9.00;5.10;;;;;;;-0.58;80.05;101305.73;130613;1259;107494;-78
2023/02/04 09:57:21;;;;;;;11.90;6.00;;;;;;;-0.59;79.85;101305.08;131491;1259;107629;-78
2023/02/04 10:00:29;;;;;;;8.70;4.80;;;;;;;-0.76;78.32;101310.04;130891;1260;107550;-78
2023/02/04 10:03:35;;;;;;;9.40;5.40;;;;;;;-0.78;78.99;101311.53;130915;1259;107134;-78
2023/02/04 10:06:42;;;;;;;10.80;6.60;;;;;;;-0.68;79.97;101310.81;130926;1254;107404;-78
2023/02/04 10:09:50;;;;;;;11.80;6.30;;;;;;;-0.61;78.59;101316.00;130858;1267;107511;-76
2023/02/04 10:12:59;;;;;;;23.50;9.30;;;;;;;-0.64;78.52;101315.56;130813;1263;107159;-79
2023/02/04 10:16:13;;;;;;;12.00;6.10;;;;;;;-0.76;79.08;101296.42;131149;1265;107509;-78
2023/02/04 10:19:19;;;;;;;15.10;6.70;;;;;;;-0.96;79.10;101292.23;131097;1260;107266;-76
2023/02/04 10:22:24;;;;;;;13.20;6.40;;;;;;;-1.15;79.18;101292.54;130656;1268;107705;-79
2023/02/04 10:25:30;;;;;;;13.50;6.10;;;;;;;-1.17;79.79;101296.80;130903;1260;107491;-75
2023/02/04 10:28:36;;;;;;;11.90;6.70;;;;;;;-1.18;79.57;101303.14;130853;1266;107607;-76
2023/02/04 10:31:44;;;;;;;15.00;8.40;;;;;;;-1.15;80.34;101311.58;131062;1259;107416;-76
2023/02/04 10:34:50;;;;;;;16.30;8.10;;;;;;;-1.14;79.89;101317.34;131010;1260;107490;-77
2023/02/04 10:38:06;;;;;;;16.80;9.20;;;;;;;-1.17;79.69;101314.80;130785;1258;107559;-76
2023/02/04 10:41:15;;;;;;;15.20;8.40;;;;;;;-1.21;79.60;101310.88;131017;1259;107550;-77
2023/02/04 10:44:27;;;;;;;15.60;8.30;;;;;;;-1.27;79.88;101313.20;131188;1259;106534;-77
2023/02/04 10:47:31;;;;;;;;;;;;;;;-1.32;79.73;101314.06;131097;1260;107448;-77
2023/02/04 10:50:37;;;;;;;18.90;10.60;;;;;;;-1.32;80.11;101316.70;131214;1267;108168;-77
2023/02/04 10:57:19;;;;;;;15.80;9.20;;;;;;;-1.17;80.03;101338.54;130907;1259;107588;-76
2023/02/04 11:00:26;;;;;;;17.20;9.60;;;;;;;-1.15;80.03;101337.77;130788;1263;107506;-76
2023/02/04 11:03:32;;;;;;;21.70;13.20;;;;;;;-1.12;79.28;101338.38;130825;1256;107560;-76
2023/02/04 11:06:37;;;;;;;13.90;8.50;;;;;;;-0.95;79.74;101340.06;130798;1261;107338;-77
2023/02/04 11:09:44;;;;;;;19.30;11.00;;;;;;;-0.83;78.83;101343.66;130802;1269;107139;-77
2023/02/04 11:13:02;;;;;;;15.10;7.80;;;;;;;-0.72;78.93;101347.86;130984;1260;107891;-77
2023/02/04 11:16:25;;;;;;;13.70;7.80;;;;;;;-0.48;78.89;101356.59;131132;1259;107539;-77
2023/02/04 11:19:34;;;;;;;;;;;;;;;-0.38;77.68;101356.24;131085;1260;107501;-77
2023/02/04 11:22:45;;;;;;;13.90;8.10;;;;;;;-0.31;78.89;101352.98;131088;1260;107572;-76
2023/02/04 11:26:01;;;;;;;13.20;7.60;;;;;;;-0.25;78.93;101352.95;131170;1270;107570;-77
2023/02/04 11:29:28;;;;;;;10.50;6.70;;;;;;;-0.26;78.45;101356.67;131199;1257;107403;-77
2023/02/04 11:32:38;;;;;;;22.20;11.20;;;;;;;-0.22;78.27;101359.67;130843;1258;107498;-78
2023/02/04 11:36:03;;;;;;;12.60;6.40;;;;;;;-0.23;77.62;101366.33;131030;1260;106532;-78
2023/02/04 11:39:18;;;;;;;17.00;8.20;;;;;;;-0.44;76.94;101370.41;130835;1268;107438;-77
2023/02/04 11:42:30;;;;;;;14.60;7.20;;;;;;;-0.61;78.12;101362.12;130815;1259;107369;-76
2023/02/04 11:45:38;;;;;;;11.20;6.20;;;;;;;-0.77;78.59;101354.84;130922;1267;107546;-78
2023/02/04 11:48:44;;;;;;;14.20;7.00;;;;;;;-0.84;78.93;101354.20;130967;1267;105890;-76
2023/02/04 11:51:50;;;;;;;16.10;7.70;;;;;;;-0.83;79.47;101355.17;130906;1256;106803;-75
2023/02/04 11:54:58;;;;;;;18.40;8.40;;;;;;;-0.79;80.13;101358.20;130687;1268;107553;-76
2023/02/04 11:58:06;;;;;;;15.80;8.10;;;;;;;-0.72;79.85;101355.34;130595;1261;107346;-77
2023/02/04 12:01:20;;;;;;;21.60;9.60;;;;;;;-0.72;79.96;101356.20;130514;1260;107967;-77
2023/02/04 12:04:28;;;;;;;18.90;9.40;;;;;;;-0.69;80.27;101359.80;130483;1259;107448;-78
2023/02/04 12:07:34;;;;;;;14.90;7.40;;;;;;;-0.63;80.64;101355.20;130495;1262;107291;-76
2023/02/04 12:10:47;;;;;;;14.20;7.40;;;;;;;-0.61;80.27;101358.10;130541;1261;107424;-77
2023/02/04 12:13:55;;;;;;;16.00;8.60;;;;;;;-0.63;80.20;101355.71;130466;1258;107540;-76
2023/02/04 12:17:01;;;;;;;25.00;11.40;;;;;;;-0.70;80.40;101353.84;130514;1255;107525;-77
2023/02/04 12:20:07;;;;;;;13.40;7.00;;;;;;;-0.68;80.85;101356.60;130549;1260;107288;-77
2023/02/04 12:23:13;;;;;;;19.80;9.50;;;;;;;-0.73;80.73;101364.13;130533;1259;107280;-76
2023/02/04 12:26:19;;;;;;;16.70;8.30;;;;;;;-0.83;81.24;101368.99;130525;1267;107574;-80
2023/02/04 12:29:24;;;;;;;10.60;6.40;;;;;;;-0.87;81.00;101372.45;130474;1258;107683;-78
2023/02/04 12:32:30;;;;;;;16.70;8.00;;;;;;;-0.92;81.10;101374.00;130574;1268;107234;-77
2023/02/04 12:35:35;;;;;;;16.20;7.00;;;;;;;-0.81;81.35;101383.08;130703;1267;107534;-77
2023/02/04 12:38:41;;;;;;;14.80;7.30;;;;;;;-0.63;80.34;101387.19;130504;1258;107641;-77
2023/02/04 12:41:46;;;;;;;15.00;7.50;;;;;;;-0.45;80.12;101387.09;130593;1267;105451;-76
2023/02/04 12:44:52;;;;;;;16.80;8.30;;;;;;;-0.39;79.86;101396.82;130511;1260;107504;-77
2023/02/04 12:47:57;;;;;;;18.10;8.10;;;;;;;-0.49;79.28;101391.95;130531;1258;106765;-77
2023/02/04 12:51:03;;;;;;;14.40;7.20;;;;;;;-0.55;79.88;101399.98;130673;1260;107216;-77
2023/02/04 12:54:09;;;;;;;18.50;7.80;;;;;;;-0.55;80.29;101399.83;130731;1257;108073;-76
2023/02/04 12:57:18;;;;;;;11.50;6.20;;;;;;;-0.50;79.82;101403.34;130809;1263;107346;-75
2023/02/04 13:00:26;;;;;;;16.10;6.80;;;;;;;-0.47;80.28;101401.66;130555;1261;107482;-76
2023/02/04 13:03:32;;;;;;;16.20;7.10;;;;;;;-0.41;80.01;101400.73;130561;1254;107706;-77
2023/02/04 13:06:37;;;;;;;15.80;7.70;;;;;;;-0.39;79.89;101398.07;130584;1257;107440;-76
2023/02/04 13:09:44;;;;;;;15.20;6.80;;;;;;;-0.47;79.64;101396.91;130489;1257;109210;-77
2023/02/04 13:12:49;;;;;;;15.30;7.10;;;;;;;-0.52;79.88;101402.88;130657;1264;107396;-77
2023/02/04 13:15:55;;;;;;;22.70;9.50;;;;;;;-0.51;80.29;101399.88;130753;1266;108392;-76
2023/02/04 13:19:00;;;;;;;25.60;12.10;;;;;;;-0.53;79.85;101400.45;130676;1262;107168;-75
2023/02/04 13:22:06;;;;;;;12.60;7.00;;;;;;;-0.50;80.29;101394.41;130551;1261;107244;-76
2023/02/04 13:25:11;;;;;;;61.70;18.60;;;;;;;-0.53;80.26;101393.12;130595;1261;107422;-76
2023/02/04 13:28:17;;;;;;;15.80;7.80;;;;;;;-0.55;80.28;101395.64;130546;1256;106119;-76
2023/02/04 13:31:23;;;;;;;17.60;8.70;;;;;;;-0.56;80.42;101395.67;130583;1269;107454;-76
2023/02/04 13:34:28;;;;;;;19.70;9.40;;;;;;;-0.59;80.27;101398.24;130549;1260;107625;-76
2023/02/04 13:37:34;;;;;;;11.60;6.40;;;;;;;-0.67;80.12;101402.34;130521;1258;107237;-77
2023/02/04 13:40:39;;;;;;;12.90;5.90;;;;;;;-0.69;79.87;101408.54;130532;1257;107525;-76
2023/02/04 13:43:45;;;;;;;13.90;6.50;;;;;;;-0.64;80.16;101409.91;130573;1261;108662;-77
2023/02/04 13:46:50;;;;;;;13.10;6.40;;;;;;;-0.67;79.89;101415.27;130550;1258;107507;-77
2023/02/04 13:49:56;;;;;;;13.60;7.00;;;;;;;-0.70;79.32;101420.98;130508;1272;107273;-77
2023/02/04 13:53:01;;;;;;;13.90;7.00;;;;;;;-0.78;79.52;101425.42;130727;1267;107248;-76
2023/02/04 13:56:08;;;;;;;12.60;6.80;;;;;;;-0.85;79.85;101429.33;130617;1261;107310;-75
2023/02/04 13:59:14;;;;;;;14.30;7.00;;;;;;;-0.83;80.16;101436.23;130566;1257;107497;-77
2023/02/04 14:02:22;;;;;;;11.10;6.00;;;;;;;-0.74;80.14;101433.32;130549;1259;108160;-76
2023/02/04 14:05:27;;;;;;;12.20;6.40;;;;;;;-0.69;80.08;101434.22;130758;1258;107813;-76